Time;durP1;ratioP1;P1;durP2;ratioP2;P2;SDS_P1;SDS_P2;PMS_P1;PMS_P2;Temp;Humidity;BMP_temperature;BMP_pressure;BME280_temperature;BME280_humidity;BME280_pressure;Samples;Min_cycle;Max_cycle;Signal;HPM_P1;HPM_P2
2022/11/20 00:02:20;;;;;;;;;;;7.70;99.90;;;;;;5095237;28;20292;-75
2022/11/20 00:04:45;;;;;;;;;;;7.70;99.90;;;;;;5096041;28;19943;-75
2022/11/20 00:07:11;;;;;;;;;;;7.60;99.90;;;;;;5095924;28;19916;-75
2022/11/20 00:09:36;;;;;;;;;;;7.60;99.90;;;;;;5095532;28;19983;-75
2022/11/20 00:12:02;;;;;;;;;;;7.50;99.90;;;;;;5077745;28;19913;-75
2022/11/20 00:14:28;;;;;;;;;;;7.50;99.90;;;;;;5095575;28;19916;-75
2022/11/20 00:16:53;;;;;;;;;;;7.50;99.90;;;;;;5095503;28;19915;-75
2022/11/20 00:19:19;;;;;;;;;;;7.50;99.90;;;;;;5095277;28;19912;-75
2022/11/20 00:21:44;;;;;;;;;;;7.50;99.90;;;;;;5111479;28;19912;-75
2022/11/20 00:24:10;;;;;;;;;;;7.50;99.90;;;;;;5077342;28;19973;-75
2022/11/20 00:26:36;;;;;;;;;;;7.50;99.90;;;;;;5095178;28;19908;-74
2022/11/20 00:29:02;;;;;;;;;;;7.40;99.90;;;;;;5095257;28;19930;-75
2022/11/20 00:31:28;;;;;;;;;;;7.40;99.90;;;;;;5094989;28;19916;-75
2022/11/20 00:33:54;;;;;;;;;;;7.40;99.90;;;;;;5095512;28;19937;-75
2022/11/20 00:36:20;;;;;;;;;;;7.40;99.90;;;;;;5076937;28;19908;-75
2022/11/20 00:38:46;;;;;;;;;;;7.30;99.90;;;;;;5094964;28;19916;-74
2022/11/20 00:41:13;;;;;;;;;;;7.30;99.90;;;;;;5095299;28;20299;-74
2022/11/20 00:43:39;;;;;;;;;;;7.30;99.90;;;;;;5094563;28;19916;-74
2022/11/20 00:46:06;;;;;;;;;;;7.20;99.90;;;;;;5095117;28;19912;-77
2022/11/20 00:48:32;;;;;;;;;;;7.20;99.90;;;;;;5094495;28;20369;-77
2022/11/20 00:50:57;;;;;;;;;;;7.20;99.90;;;;;;5095631;28;19915;-75
2022/11/20 00:53:23;;;;;;;;;;;7.10;99.90;;;;;;5094319;28;20280;-76
2022/11/20 00:55:53;;;;;;;;;;;7.10;99.90;;;;;;5094973;28;20010;-77
2022/11/20 00:58:19;;;;;;;;;;;7.10;99.90;;;;;;5076564;28;19908;-74
2022/11/20 01:00:45;;;;;;;;;;;7.10;99.90;;;;;;5094756;28;20371;-75
2022/11/20 01:03:10;;;;;;;;;;;7.10;99.90;;;;;;5094346;28;19908;-75
2022/11/20 01:05:36;;;;;;;;;;;7.00;99.90;;;;;;5094368;28;20000;-76
2022/11/20 01:08:01;;;;;;;;;;;7.00;99.90;;;;;;5093907;28;19908;-74
2022/11/20 01:10:27;;;;;;;;;;;7.00;99.90;;;;;;5094727;28;19908;-75
2022/11/20 01:13:36;;;;;;;;;;;6.90;99.90;;;;;;5094895;28;19919;-76
2022/11/20 01:15:38;;;;;;;;;;;6.90;99.90;;;;;;5094096;28;19908;-76
2022/11/20 01:18:03;;;;;;;;;;;6.90;99.90;;;;;;5095024;28;19919;-76
2022/11/20 01:20:29;;;;;;;;;;;6.80;99.90;;;;;;5110010;28;20376;-77
2022/11/20 01:22:54;;;;;;;;;;;6.90;99.90;;;;;;5094859;28;19909;-76
2022/11/20 01:25:20;;;;;;;;;;;6.80;99.90;;;;;;5094436;28;19988;-76
2022/11/20 01:27:46;;;;;;;;;;;6.80;99.90;;;;;;5094838;28;19944;-76
2022/11/20 01:30:11;;;;;;;;;;;6.80;99.90;;;;;;5094625;28;19908;-76
2022/11/20 01:32:37;;;;;;;;;;;6.70;99.90;;;;;;5093706;28;19919;-76
2022/11/20 01:35:03;;;;;;;;;;;6.70;99.90;;;;;;5094382;28;19919;-77
2022/11/20 01:37:28;;;;;;;;;;;6.80;99.90;;;;;;5094209;28;20437;-76
2022/11/20 01:39:54;;;;;;;;;;;6.80;99.90;;;;;;5094389;28;19912;-76
2022/11/20 01:45:23;;;;;;;;;;;6.90;99.90;;;;;;5094256;28;20014;-74
2022/11/20 01:47:50;;;;;;;;;;;7.00;99.90;;;;;;5094361;28;19954;-74
2022/11/20 01:50:26;;;;;;;;;;;7.00;99.90;;;;;;5094145;28;19969;-74
2022/11/20 01:52:56;;;;;;;;;;;7.00;99.90;;;;;;5094028;28;20285;-75
2022/11/20 01:55:25;;;;;;;;;;;7.10;99.90;;;;;;5093953;28;20293;-74
2022/11/20 01:57:51;;;;;;;;;;;7.10;99.90;;;;;;5093787;28;19908;-74
2022/11/20 02:00:18;;;;;;;;;;;7.10;99.90;;;;;;5094072;28;19915;-75
2022/11/20 02:02:46;;;;;;;;;;;7.10;99.90;;;;;;5093591;28;19998;-75
2022/11/20 02:05:16;;;;;;;;;;;7.10;99.90;;;;;;5094160;28;19908;-75
2022/11/20 02:07:42;;;;;;;;;;;7.10;99.90;;;;;;5093994;28;20089;-75
2022/11/20 02:10:08;;;;;;;;;;;7.10;99.90;;;;;;5093708;28;19912;-74
2022/11/20 02:15:18;;;;;;;;;;;7.10;99.90;;;;;;5093749;28;20434;-77
2022/11/20 02:17:43;;;;;;;;;;;7.10;99.90;;;;;;5093067;28;19912;-76
2022/11/20 02:20:09;;;;;;;;;;;7.10;99.90;;;;;;5093538;28;19912;-76
2022/11/20 02:22:38;;;;;;;;;;;7.10;99.90;;;;;;5093391;28;19962;-76
2022/11/20 02:25:04;;;;;;;;;;;7.10;99.90;;;;;;5093614;28;19998;-76
2022/11/20 02:27:30;;;;;;;;;;;7.10;99.90;;;;;;5093072;28;20387;-76
2022/11/20 02:30:07;;;;;;;;;;;7.00;99.90;;;;;;5093819;28;19908;-76
2022/11/20 02:32:34;;;;;;;;;;;7.00;99.90;;;;;;5093020;28;19916;-76
2022/11/20 02:35:09;;;;;;;;;;;7.00;99.90;;;;;;5093623;28;19908;-77
2022/11/20 02:37:37;;;;;;;;;;;7.00;99.90;;;;;;5093152;28;19908;-77
2022/11/20 02:40:02;;;;;;;;;;;7.10;99.90;;;;;;5092722;28;20383;-77
2022/11/20 02:42:28;;;;;;;;;;;7.10;99.90;;;;;;5093113;28;19911;-77
2022/11/20 02:44:53;;;;;;;;;;;7.10;99.90;;;;;;5093235;28;20278;-77
2022/11/20 02:47:19;;;;;;;;;;;7.20;99.90;;;;;;5093342;28;19931;-77
2022/11/20 02:49:44;;;;;;;;;;;7.10;99.90;;;;;;5092965;28;19915;-77
2022/11/20 02:52:10;;;;;;;;;;;7.10;99.90;;;;;;5093076;28;19916;-77
2022/11/20 02:54:36;;;;;;;;;;;7.10;99.90;;;;;;5092773;28;19924;-78
2022/11/20 02:57:01;;;;;;;;;;;7.00;99.90;;;;;;5075087;28;19950;-77
2022/11/20 02:59:27;;;;;;;;;;;6.90;99.90;;;;;;5092896;28;20309;-76
2022/11/20 03:01:52;;;;;;;;;;;6.80;99.90;;;;;;5093230;28;20349;-77
2022/11/20 03:04:18;;;;;;;;;;;6.70;99.90;;;;;;5092860;28;20280;-76
2022/11/20 03:06:43;;;;;;;;;;;6.70;99.90;;;;;;5093136;28;19935;-77
2022/11/20 03:09:09;;;;;;;;;;;6.50;99.90;;;;;;5093541;28;19961;-77
2022/11/20 03:11:34;;;;;;;;;;;6.50;99.90;;;;;;5092352;28;19927;-77
2022/11/20 03:14:03;;;;;;;;;;;6.40;99.90;;;;;;5093116;28;20345;-77
2022/11/20 03:16:30;;;;;;;;;;;6.30;99.90;;;;;;5092637;28;19908;-77
2022/11/20 03:18:56;;;;;;;;;;;6.20;99.90;;;;;;5093179;28;19909;-77
2022/11/20 03:21:21;;;;;;;;;;;6.20;99.90;;;;;;5093122;28;20003;-77
2022/11/20 03:23:47;;;;;;;;;;;6.10;99.90;;;;;;5092861;28;19904;-77
2022/11/20 03:26:20;;;;;;;;;;;6.10;99.90;;;;;;5093457;28;19974;-77
2022/11/20 03:28:46;;;;;;;;;;;6.10;99.90;;;;;;5092635;28;19908;-77
2022/11/20 03:31:13;;;;;;;;;;;6.00;99.90;;;;;;5095063;28;19961;-76
2022/11/20 03:33:39;;;;;;;;;;;6.10;99.90;;;;;;5078217;28;19970;-77
2022/11/20 03:36:07;;;;;;;;;;;6.10;99.90;;;;;;5112754;28;19950;-77
2022/11/20 03:38:32;;;;;;;;;;;6.10;99.90;;;;;;5096418;28;19908;-77
2022/11/20 03:41:00;;;;;;;;;;;6.10;99.90;;;;;;5096757;28;19908;-77
2022/11/20 03:43:25;;;;;;;;;;;6.20;99.90;;;;;;5096675;28;19908;-77
2022/11/20 03:45:51;;;;;;;;;;;6.20;99.90;;;;;;5096405;28;19999;-77
2022/11/20 03:48:16;;;;;;;;;;;6.20;99.90;;;;;;5096730;28;19909;-77
2022/11/20 03:50:42;;;;;;;;;;;6.20;99.90;;;;;;5096260;28;19915;-76
2022/11/20 03:53:07;;;;;;;;;;;6.20;99.90;;;;;;5096325;28;19916;-77
2022/11/20 03:55:33;;;;;;;;;;;6.20;99.90;;;;;;5096326;28;19908;-76
2022/11/20 03:57:58;;;;;;;;;;;6.20;99.90;;;;;;5096798;28;20257;-75
2022/11/20 04:00:24;;;;;;;;;;;6.20;99.90;;;;;;5096346;28;20008;-74
2022/11/20 04:02:49;;;;;;;;;;;6.30;99.90;;;;;;5077771;28;19904;-75
2022/11/20 04:05:15;;;;;;;;;;;6.30;99.90;;;;;;5096299;28;19908;-74
2022/11/20 04:07:41;;;;;;;;;;;6.30;99.90;;;;;;5077771;28;20345;-75
2022/11/20 04:10:06;;;;;;;;;;;6.30;99.90;;;;;;5095780;28;19953;-77
2022/11/20 04:12:33;;;;;;;;;;;6.30;99.90;;;;;;5095583;28;20003;-74
2022/11/20 04:14:58;;;;;;;;;;;6.30;99.90;;;;;;5096137;28;19916;-77
2022/11/20 04:17:24;;;;;;;;;;;6.30;99.90;;;;;;5095786;28;19912;-77
2022/11/20 04:19:49;;;;;;;;;;;6.30;99.90;;;;;;5095427;28;19904;-77
2022/11/20 04:22:15;;;;;;;;;;;6.30;99.90;;;;;;5096195;28;19912;-77
2022/11/20 04:24:41;;;;;;;;;;;6.20;99.90;;;;;;5095620;28;19916;-77
2022/11/20 04:27:06;;;;;;;;;;;6.30;99.90;;;;;;5095711;28;19908;-77
2022/11/20 04:29:32;;;;;;;;;;;6.30;99.90;;;;;;5095823;28;19912;-76
2022/11/20 04:31:57;;;;;;;;;;;6.40;99.90;;;;;;5095780;28;19912;-77
2022/11/20 04:34:23;;;;;;;;;;;6.40;99.90;;;;;;5096001;28;19916;-77
2022/11/20 04:36:48;;;;;;;;;;;6.40;99.90;;;;;;5094993;28;19908;-77
2022/11/20 04:39:15;;;;;;;;;;;6.50;99.90;;;;;;5096068;28;19912;-77
2022/11/20 04:41:40;;;;;;;;;;;6.50;99.90;;;;;;5076833;28;20315;-76
2022/11/20 04:44:06;;;;;;;;;;;6.50;99.90;;;;;;5095272;28;19908;-77
2022/11/20 04:46:33;;;;;;;;;;;6.50;99.90;;;;;;5095344;28;19909;-76
2022/11/20 04:48:59;;;;;;;;;;;6.50;99.90;;;;;;5095344;28;19939;-77
2022/11/20 04:51:25;;;;;;;;;;;6.40;99.90;;;;;;5095479;28;19966;-77
2022/11/20 04:53:50;;;;;;;;;;;6.40;99.90;;;;;;5094717;28;19927;-77
2022/11/20 04:56:16;;;;;;;;;;;6.50;99.90;;;;;;5095469;28;19908;-77
2022/11/20 04:58:42;;;;;;;;;;;6.40;99.90;;;;;;5094755;28;19908;-76
2022/11/20 05:01:14;;;;;;;;;;;6.50;99.90;;;;;;5095051;28;20376;-77
2022/11/20 05:03:40;;;;;;;;;;;6.50;99.90;;;;;;5094307;28;20377;-77
2022/11/20 05:06:06;;;;;;;;;;;6.50;99.90;;;;;;5095217;28;19916;-77
2022/11/20 05:08:32;;;;;;;;;;;6.50;99.90;;;;;;5095218;28;19908;-77
2022/11/20 05:11:02;;;;;;;;;;;6.40;99.90;;;;;;5094843;28;19908;-77
2022/11/20 05:13:27;;;;;;;;;;;6.50;99.90;;;;;;5094985;28;20347;-77
2022/11/20 05:15:53;;;;;;;;;;;6.40;99.90;;;;;;5094635;28;19915;-77
2022/11/20 05:18:18;;;;;;;;;;;6.40;99.90;;;;;;5094651;28;19909;-77
2022/11/20 05:20:44;;;;;;;;;;;6.40;99.90;;;;;;5110006;28;19912;-77
2022/11/20 05:23:09;;;;;;;;;;;6.40;99.90;;;;;;5094909;28;20349;-77
2022/11/20 05:25:35;;;;;;;;;;;6.40;99.90;;;;;;5094401;28;20280;-77
2022/11/20 05:28:00;;;;;;;;;;;6.40;99.90;;;;;;5094653;28;19908;-77
2022/11/20 05:30:26;;;;;;;;;;;6.30;99.90;;;;;;5094356;28;19915;-75
2022/11/20 05:32:51;;;;;;;;;;;6.20;99.90;;;;;;5094425;28;20421;-78
2022/11/20 05:35:17;;;;;;;;;;;6.20;99.90;;;;;;5094499;28;19931;-77
2022/11/20 05:37:43;;;;;;;;;;;6.30;99.90;;;;;;5094232;28;19999;-77
2022/11/20 05:40:08;;;;;;;;;;;6.20;99.90;;;;;;5075997;28;19963;-74
2022/11/20 05:42:35;;;;;;;;;;;6.20;99.90;;;;;;5094545;28;20011;-77
2022/11/20 05:45:02;;;;;;;;;;;6.10;99.90;;;;;;5094092;28;19915;-77
2022/11/20 05:47:28;;;;;;;;;;;6.10;99.90;;;;;;5076131;28;19951;-77
2022/11/20 05:49:54;;;;;;;;;;;6.10;99.90;;;;;;5075665;28;20268;-77
2022/11/20 05:52:19;;;;;;;;;;;6.10;99.90;;;;;;5094262;28;20015;-77
2022/11/20 05:54:45;;;;;;;;;;;6.10;99.90;;;;;;5093456;28;19973;-75
2022/11/20 05:57:10;;;;;;;;;;;6.10;99.90;;;;;;5094207;28;19908;-77
2022/11/20 05:59:36;;;;;;;;;;;6.10;99.90;;;;;;5075902;28;19908;-77
2022/11/20 06:02:02;;;;;;;;;;;6.10;99.90;;;;;;5093580;28;19909;-75
2022/11/20 06:04:27;;;;;;;;;;;6.10;99.90;;;;;;5094035;28;20273;-77
2022/11/20 06:06:53;;;;;;;;;;;6.10;99.90;;;;;;5093481;28;19961;-74
2022/11/20 06:09:18;;;;;;;;;;;6.10;99.90;;;;;;5094432;28;19908;-77
2022/11/20 06:11:44;;;;;;;;;;;6.20;99.90;;;;;;5093334;28;19912;-77
2022/11/20 06:14:09;;;;;;;;;;;6.20;99.90;;;;;;5076018;28;20397;-77
2022/11/20 06:16:35;;;;;;;;;;;6.20;99.90;;;;;;5093831;28;19909;-76
2022/11/20 06:19:00;;;;;;;;;;;6.20;99.90;;;;;;5093516;28;19931;-75
2022/11/20 06:21:26;;;;;;;;;;;6.10;99.90;;;;;;5093665;28;19909;-75
2022/11/20 06:23:52;;;;;;;;;;;6.10;99.90;;;;;;5093026;28;19915;-75
2022/11/20 06:26:22;;;;;;;;;;;6.10;99.90;;;;;;5093491;28;19908;-76
2022/11/20 06:28:47;;;;;;;;;;;6.10;99.90;;;;;;5093198;28;19973;-75
2022/11/20 06:31:14;;;;;;;;;;;6.10;99.90;;;;;;5093993;28;20411;-75
2022/11/20 06:33:40;;;;;;;;;;;6.10;99.90;;;;;;5092782;28;20369;-75
2022/11/20 06:36:06;;;;;;;;;;;6.00;99.90;;;;;;5093497;28;20376;-75
2022/11/20 06:38:31;;;;;;;;;;;6.00;99.90;;;;;;5093420;28;19908;-75
2022/11/20 06:40:57;;;;;;;;;;;6.00;99.90;;;;;;5092921;28;19930;-75
2022/11/20 06:43:23;;;;;;;;;;;6.00;99.90;;;;;;5093612;28;19914;-75
2022/11/20 06:45:55;;;;;;;;;;;6.00;99.90;;;;;;5093370;28;20372;-75
2022/11/20 06:48:21;;;;;;;;;;;6.00;99.90;;;;;;5093471;28;20303;-76
2022/11/20 06:50:46;;;;;;;;;;;6.00;99.90;;;;;;5093026;28;19908;-75
2022/11/20 06:53:12;;;;;;;;;;;6.00;99.90;;;;;;5093181;28;20276;-75
2022/11/20 06:55:41;;;;;;;;;;;6.00;99.90;;;;;;5093486;28;19961;-76
2022/11/20 06:58:07;;;;;;;;;;;5.90;99.90;;;;;;5092970;28;19908;-75
2022/11/20 07:00:32;;;;;;;;;;;6.00;99.90;;;;;;5093488;28;20330;-75
2022/11/20 07:02:58;;;;;;;;;;;6.00;99.90;;;;;;5092651;28;19969;-75
2022/11/20 07:05:23;;;;;;;;;;;6.00;99.90;;;;;;5095185;28;19912;-75
2022/11/20 07:07:49;;;;;;;;;;;5.90;99.90;;;;;;5097339;28;19908;-74
2022/11/20 07:10:14;;;;;;;;;;;5.90;99.90;;;;;;5097147;28;20367;-74
2022/11/20 07:12:40;;;;;;;;;;;5.90;99.90;;;;;;5097400;28;19919;-75
2022/11/20 07:15:06;;;;;;;;;;;5.90;99.90;;;;;;5096896;28;19992;-74
2022/11/20 07:17:32;;;;;;;;;;;5.80;99.90;;;;;;5097235;28;19908;-75
2022/11/20 07:19:57;;;;;;;;;;;5.80;99.90;;;;;;5096928;28;19961;-75
2022/11/20 07:22:23;;;;;;;;;;;5.80;99.90;;;;;;5097556;28;19908;-76
2022/11/20 07:24:48;;;;;;;;;;;5.80;99.90;;;;;;5096693;28;19947;-74
2022/11/20 07:27:14;;;;;;;;;;;5.80;99.90;;;;;;5097161;28;20272;-75
2022/11/20 07:29:39;;;;;;;;;;;5.80;99.90;;;;;;5097145;28;20286;-75
2022/11/20 07:32:05;;;;;;;;;;;5.80;99.90;;;;;;5096607;28;20313;-75
2022/11/20 07:34:30;;;;;;;;;;;5.80;99.90;;;;;;5096908;28;19912;-74
2022/11/20 07:36:56;;;;;;;;;;;5.80;99.90;;;;;;5096446;28;20265;-75
2022/11/20 07:39:22;;;;;;;;;;;5.80;99.90;;;;;;5096854;28;19908;-75
2022/11/20 07:41:47;;;;;;;;;;;5.80;99.90;;;;;;5096526;28;20003;-75
2022/11/20 07:44:13;;;;;;;;;;;5.80;99.90;;;;;;5096872;28;19908;-75
2022/11/20 07:46:38;;;;;;;;;;;5.90;99.90;;;;;;5096665;28;19916;-75
2022/11/20 07:49:04;;;;;;;;;;;6.00;99.90;;;;;;5096258;28;20475;-75
2022/11/20 07:51:29;;;;;;;;;;;6.00;99.90;;;;;;5096612;28;19908;-75
2022/11/20 07:53:55;;;;;;;;;;;6.10;99.90;;;;;;5095929;28;19920;-75
2022/11/20 07:56:20;;;;;;;;;;;6.10;99.90;;;;;;5096478;28;19915;-75
2022/11/20 07:58:46;;;;;;;;;;;6.20;99.90;;;;;;5096242;28;19994;-76
2022/11/20 08:01:12;;;;;;;;;;;6.20;99.90;;;;;;5095961;28;20458;-75
2022/11/20 08:03:37;;;;;;;;;;;6.20;99.90;;;;;;5096228;28;19909;-75
2022/11/20 08:06:03;;;;;;;;;;;6.20;99.90;;;;;;5095487;28;20290;-75
2022/11/20 08:08:29;;;;;;;;;;;6.30;99.90;;;;;;5096073;28;19908;-75
2022/11/20 08:14:11;;;;;;;;;;;6.40;99.90;;;;;;5095805;28;19953;-76
2022/11/20 08:16:26;;;;;;;;;;;6.50;99.90;;;;;;5095557;28;19919;-76
2022/11/20 08:18:51;;;;;;;;;;;6.60;99.90;;;;;;5095444;28;19909;-76
2022/11/20 08:21:17;;;;;;;;;;;6.60;99.90;;;;;;5095948;28;19912;-76
2022/11/20 08:23:42;;;;;;;;;;;6.60;99.90;;;;;;5095790;28;20281;-75
2022/11/20 08:26:08;;;;;;;;;;;6.60;99.90;;;;;;5095521;28;19957;-76
2022/11/20 08:28:33;;;;;;;;;;;6.70;99.90;;;;;;5095612;28;19912;-76
2022/11/20 08:31:00;;;;;;;;;;;6.70;99.90;;;;;;5095402;28;19908;-76
2022/11/20 08:33:25;;;;;;;;;;;6.70;99.90;;;;;;5095605;28;19912;-75
2022/11/20 08:35:51;;;;;;;;;;;6.80;99.90;;;;;;5095409;28;19918;-75
2022/11/20 08:38:16;;;;;;;;;;;6.90;99.90;;;;;;5095286;28;19908;-75
2022/11/20 08:41:23;;;;;;;;;;;7.00;99.90;;;;;;5095541;28;19915;-75
2022/11/20 08:43:27;;;;;;;;;;;6.90;99.90;;;;;;5095238;28;19919;-75
2022/11/20 08:45:53;;;;;;;;;;;7.10;99.90;;;;;;5095189;28;19908;-75
2022/11/20 08:48:18;;;;;;;;;;;7.10;99.90;;;;;;5095484;28;19908;-76
2022/11/20 08:50:44;;;;;;;;;;;7.20;99.90;;;;;;5095313;28;19956;-76
2022/11/20 08:53:09;;;;;;;;;;;7.30;99.90;;;;;;5094598;28;19987;-75
2022/11/20 08:55:36;;;;;;;;;;;7.30;99.90;;;;;;5095538;28;19908;-74
2022/11/20 08:58:05;;;;;;;;;;;7.30;99.90;;;;;;5094878;28;19908;-74
2022/11/20 09:00:32;;;;;;;;;;;7.40;99.90;;;;;;5095041;28;19908;-76
2022/11/20 09:02:58;;;;;;;;;;;7.40;99.90;;;;;;5094593;28;19908;-78
2022/11/20 09:05:24;;;;;;;;;;;7.40;99.90;;;;;;5110839;28;19915;-78
2022/11/20 09:07:49;;;;;;;;;;;7.40;99.90;;;;;;5094603;28;19908;-77
2022/11/20 09:10:15;;;;;;;;;;;7.40;99.90;;;;;;5094686;28;19909;-78
2022/11/20 09:12:41;;;;;;;;;;;7.40;99.90;;;;;;5095004;28;19912;-77
2022/11/20 09:15:07;;;;;;;;;;;7.40;99.90;;;;;;5094522;28;20276;-78
2022/11/20 09:17:32;;;;;;;;;;;7.40;99.90;;;;;;5094919;28;19909;-78
2022/11/20 09:19:58;;;;;;;;;;;7.40;99.90;;;;;;5094504;28;20007;-77
2022/11/20 09:22:24;;;;;;;;;;;7.40;99.90;;;;;;5094798;28;19944;-78
2022/11/20 09:24:49;;;;;;;;;;;7.40;99.90;;;;;;5094744;28;20002;-74
2022/11/20 09:27:20;;;;;;;;;;;7.40;99.90;;;;;;5095004;28;19909;-78
2022/11/20 09:29:45;;;;;;;;;;;7.40;99.90;;;;;;5093650;28;20277;-77
2022/11/20 09:32:11;;;;;;;;;;;7.40;99.90;;;;;;5094397;28;19915;-77
2022/11/20 09:34:37;;;;;;;;;;;7.40;99.90;;;;;;5094481;28;20246;-77
2022/11/20 09:37:02;;;;;;;;;;;7.40;99.90;;;;;;5093823;28;19908;-75
2022/11/20 09:39:28;;;;;;;;;;;7.50;99.90;;;;;;5094590;28;20353;-79
2022/11/20 09:41:53;;;;;;;;;;;7.50;99.90;;;;;;5094054;28;20381;-76
2022/11/20 09:44:31;;;;;;;;;;;7.50;99.90;;;;;;5094159;28;19998;-78
2022/11/20 09:47:08;;;;;;;;;;;7.50;99.90;;;;;;5093991;28;20045;-78
2022/11/20 09:49:53;;;;;;;;;;;7.60;99.90;;;;;;5094212;28;19908;-77
2022/11/20 09:52:36;;;;;;;;;;;7.70;99.90;;;;;;5093459;28;20001;-77
2022/11/20 09:55:03;;;;;;;;;;;7.80;99.90;;;;;;5093118;28;19920;-77
2022/11/20 09:57:40;;;;;;;;;;;7.80;99.90;;;;;;5093677;28;19909;-77
2022/11/20 10:00:11;;;;;;;;;;;7.90;99.90;;;;;;5075267;28;20285;-77
2022/11/20 10:02:39;;;;;;;;;;;7.90;99.90;;;;;;5093596;28;19915;-78
2022/11/20 10:05:09;;;;;;;;;;;8.00;99.90;;;;;;5093292;28;19934;-77
2022/11/20 10:07:46;;;;;;;;;;;8.00;99.90;;;;;;5093908;28;19919;-77
2022/11/20 10:10:17;;;;;;;;;;;8.00;99.90;;;;;;5093168;28;20526;-75
2022/11/20 10:12:57;;;;;;;;;;;8.00;99.90;;;;;;5093520;28;19938;-78
2022/11/20 10:15:41;;;;;;;;;;;8.00;99.90;;;;;;5093664;28;20000;-78
2022/11/20 10:18:22;;;;;;;;;;;8.10;99.90;;;;;;5093121;28;19908;-78
2022/11/20 10:21:14;;;;;;;;;;;8.10;99.90;;;;;;5093391;28;19933;-77
2022/11/20 10:23:59;;;;;;;;;;;8.10;99.90;;;;;;5076955;28;19915;-78
2022/11/20 10:26:30;;;;;;;;;;;8.10;99.90;;;;;;5093253;28;20277;-78
2022/11/20 10:29:05;;;;;;;;;;;8.20;99.90;;;;;;5092532;28;19908;-76
2022/11/20 10:31:35;;;;;;;;;;;8.10;99.90;;;;;;5093081;28;20309;-78
2022/11/20 10:34:03;;;;;;;;;;;8.10;99.90;;;;;;5092611;28;19916;-77
2022/11/20 10:36:38;;;;;;;;;;;8.10;99.90;;;;;;5108948;28;20313;-78
2022/11/20 10:39:07;;;;;;;;;;;8.10;99.90;;;;;;5092459;28;19908;-77
2022/11/20 10:41:37;;;;;;;;;;;8.20;99.90;;;;;;5093161;28;19998;-76
2022/11/20 10:44:14;;;;;;;;;;;8.20;99.90;;;;;;5092567;28;19987;-77
2022/11/20 10:46:42;;;;;;;;;;;8.20;99.90;;;;;;5093235;28;19946;-78
2022/11/20 10:49:12;;;;;;;;;;;8.20;99.90;;;;;;5092660;28;19915;-78
2022/11/20 10:51:44;;;;;;;;;;;8.20;99.90;;;;;;5093028;28;19908;-78
2022/11/20 10:54:29;;;;;;;;;;;8.30;99.90;;;;;;5074246;28;20272;-78
2022/11/20 10:56:59;;;;;;;;;;;8.40;99.90;;;;;;5093082;28;19935;-77
2022/11/20 10:59:24;;;;;;;;;;;8.40;99.90;;;;;;5093132;28;19934;-78
2022/11/20 11:01:50;;;;;;;;;;;8.40;99.90;;;;;;5092983;28;20432;-77
2022/11/20 11:04:35;;;;;;;;;;;8.40;99.90;;;;;;5092699;28;20315;-77
2022/11/20 11:07:24;;;;;;;;;;;8.30;99.90;;;;;;5092199;28;19908;-77
2022/11/20 11:09:52;;;;;;;;;;;8.30;99.90;;;;;;5086764;28;20003;-78
2022/11/20 11:12:18;;;;;;;;;;;8.20;99.90;;;;;;5091964;28;20249;-77
2022/11/20 11:14:45;;;;;;;;;;;8.20;99.90;;;;;;5092759;28;19912;-78
2022/11/20 11:17:21;;;;;;;;;;;8.10;99.90;;;;;;5092684;28;19914;-77
2022/11/20 11:19:56;;;;;;;;;;;8.20;99.90;;;;;;5092817;28;20002;-78
2022/11/20 11:22:22;;;;;;;;;;;8.10;99.90;;;;;;5108627;28;19914;-77
2022/11/20 11:24:51;;;;;;;;;;;8.10;99.90;;;;;;5093148;28;20055;-78
2022/11/20 11:27:17;;;;;;;;;;;8.00;99.90;;;;;;5107867;28;19908;-77
2022/11/20 11:29:43;;;;;;;;;;;8.00;99.90;;;;;;5092699;28;20109;-78
2022/11/20 11:32:12;;;;;;;;;;;7.90;99.90;;;;;;5073878;28;19912;-77
2022/11/20 11:34:37;;;;;;;;;;;7.90;99.90;;;;;;5092091;28;20357;-78
2022/11/20 11:37:04;;;;;;;;;;;7.80;99.90;;;;;;5091890;28;20007;-77
2022/11/20 11:39:30;;;;;;;;;;;7.80;99.90;;;;;;5092582;28;19992;-78
2022/11/20 11:41:57;;;;;;;;;;;7.80;99.90;;;;;;5092032;28;19909;-76
2022/11/20 11:47:18;;;;;;;;;;;7.80;99.90;;;;;;5091937;28;20277;-78
2022/11/20 11:49:44;;;;;;;;;;;7.80;99.90;;;;;;5092444;28;19912;-77
2022/11/20 11:52:10;;;;;;;;;;;7.90;99.90;;;;;;5093372;28;20065;-78
2022/11/20 11:54:35;;;;;;;;;;;7.90;99.90;;;;;;5096072;28;19932;-78
2022/11/20 11:57:04;;;;;;;;;;;7.90;99.90;;;;;;5095813;28;20026;-78
2022/11/20 11:59:49;;;;;;;;;;;7.90;99.90;;;;;;5096037;28;19914;-78
2022/11/20 12:02:27;;;;;;;;;;;7.90;99.90;;;;;;5095638;28;20015;-76
2022/11/20 12:05:03;;;;;;;;;;;7.90;99.90;;;;;;5095848;28;20277;-77
2022/11/20 12:07:34;;;;;;;;;;;8.00;99.90;;;;;;5095991;28;19912;-78
2022/11/20 12:10:01;;;;;;;;;;;8.00;99.90;;;;;;5095278;28;19976;-77
2022/11/20 12:12:29;;;;;;;;;;;8.00;99.90;;;;;;5095472;28;19953;-77
2022/11/20 12:14:56;;;;;;;;;;;8.00;99.90;;;;;;5095843;28;19912;-76
2022/11/20 12:17:21;;;;;;;;;;;8.00;99.90;;;;;;5096162;28;19908;-77
2022/11/20 12:19:47;;;;;;;;;;;8.00;99.90;;;;;;5096147;28;19957;-77
2022/11/20 12:22:15;;;;;;;;;;;8.00;99.90;;;;;;5077283;28;19914;-77
2022/11/20 12:24:56;;;;;;;;;;;8.00;99.90;;;;;;5096033;28;19930;-78
2022/11/20 12:27:27;;;;;;;;;;;8.10;99.90;;;;;;5095459;28;20369;-77
2022/11/20 12:30:10;;;;;;;;;;;8.00;99.90;;;;;;5095855;28;19958;-78
2022/11/20 12:32:44;;;;;;;;;;;8.10;99.90;;;;;;5095577;28;19919;-77
2022/11/20 12:35:15;;;;;;;;;;;8.10;99.90;;;;;;5094989;28;19958;-77
2022/11/20 12:37:53;;;;;;;;;;;8.10;99.90;;;;;;5095698;28;19908;-77
2022/11/20 12:40:27;;;;;;;;;;;8.20;99.90;;;;;;5095222;28;20096;-77
2022/11/20 12:45:54;;;;;;;;;;;8.30;99.90;;;;;;5095413;28;20444;-78
2022/11/20 12:48:32;;;;;;;;;;;8.40;99.90;;;;;;5095193;28;19904;-78
2022/11/20 12:51:05;;;;;;;;;;;8.40;99.90;;;;;;5095496;28;20213;-76
2022/11/20 12:53:31;;;;;;;;;;;8.40;99.90;;;;;;5095204;28;19927;-77
2022/11/20 12:56:05;;;;;;;;;;;8.50;99.90;;;;;;5094140;28;20250;-76
2022/11/20 12:58:45;;;;;;;;;;;8.50;99.90;;;;;;5095608;28;19952;-78
2022/11/20 13:01:39;;;;;;;;;;;8.50;99.90;;;;;;5094952;28;20323;-77
2022/11/20 13:03:57;;;;;;;;;;;8.60;99.90;;;;;;5094683;28;19908;-77
2022/11/20 13:06:24;;;;;;;;;;;8.60;99.90;;;;;;5094496;28;19931;-77
2022/11/20 13:08:59;;;;;;;;;;;8.60;99.90;;;;;;5095357;28;20317;-78
2022/11/20 13:11:33;;;;;;;;;;;8.70;99.90;;;;;;5094956;28;19959;-78
2022/11/20 13:14:05;;;;;;;;;;;8.60;99.90;;;;;;5094865;28;19919;-76
2022/11/20 13:16:49;;;;;;;;;;;8.70;99.90;;;;;;5095103;28;19938;-78
2022/11/20 13:19:16;;;;;;;;;;;8.70;99.90;;;;;;5094526;28;19939;-78
2022/11/20 13:21:46;;;;;;;;;;;8.80;99.90;;;;;;5094579;28;20356;-78
2022/11/20 13:24:23;;;;;;;;;;;8.80;99.90;;;;;;5076272;28;20326;-78
2022/11/20 13:27:04;;;;;;;;;;;8.70;99.90;;;;;;5094904;28;19908;-78
2022/11/20 13:29:30;;;;;;;;;;;8.70;99.90;;;;;;5094619;28;20362;-78
2022/11/20 13:32:22;;;;;;;;;;;8.70;99.90;;;;;;5094232;28;19999;-79
2022/11/20 13:34:55;;;;;;;;;;;8.80;99.90;;;;;;5074886;28;19912;-79
2022/11/20 13:37:39;;;;;;;;;;;8.80;99.90;;;;;;5093927;28;19904;-78
2022/11/20 13:40:07;;;;;;;;;;;8.80;99.90;;;;;;5093980;28;20334;-77
2022/11/20 13:42:35;;;;;;;;;;;8.80;99.90;;;;;;5094471;28;19908;-78
2022/11/20 13:45:02;;;;;;;;;;;8.80;99.90;;;;;;5075886;28;19908;-76
2022/11/20 13:47:29;;;;;;;;;;;8.80;99.90;;;;;;5094282;28;19912;-78
2022/11/20 13:49:59;;;;;;;;;;;8.80;99.90;;;;;;5093899;28;20372;-78
2022/11/20 13:52:46;;;;;;;;;;;8.80;99.90;;;;;;5093820;28;19916;-78
2022/11/20 13:55:21;;;;;;;;;;;8.80;99.90;;;;;;5094018;28;20361;-77
2022/11/20 13:57:52;;;;;;;;;;;8.80;99.90;;;;;;5093959;28;19912;-77
2022/11/20 14:00:19;;;;;;;;;;;8.80;99.90;;;;;;5093624;28;20371;-77
2022/11/20 14:03:00;;;;;;;;;;;8.80;99.90;;;;;;5093738;28;19912;-77
2022/11/20 14:05:26;;;;;;;;;;;8.80;99.90;;;;;;5075552;28;19954;-77
2022/11/20 14:07:52;;;;;;;;;;;8.80;99.90;;;;;;5093333;28;19908;-77
2022/11/20 14:10:22;;;;;;;;;;;8.70;99.90;;;;;;5093499;28;19908;-77
2022/11/20 14:12:48;;;;;;;;;;;8.70;99.90;;;;;;5093882;28;20011;-77
2022/11/20 14:15:30;;;;;;;;;;;8.70;99.90;;;;;;5092858;28;19940;-77
2022/11/20 14:17:56;;;;;;;;;;;8.70;99.90;;;;;;5093739;28;19938;-77
2022/11/20 14:20:25;;;;;;;;;;;8.60;99.90;;;;;;5093249;28;19915;-77
2022/11/20 14:22:51;;;;;;;;;;;8.50;99.90;;;;;;5093553;28;19908;-77
2022/11/20 14:25:16;;;;;;;;;;;8.60;99.90;;;;;;5093160;28;20031;-77
2022/11/20 14:27:47;;;;;;;;;;;8.50;99.90;;;;;;5093395;28;19915;-77
2022/11/20 14:30:18;;;;;;;;;;;8.50;99.90;;;;;;5093202;28;19908;-77
2022/11/20 14:32:44;;;;;;;;;;;8.50;99.90;;;;;;5093862;28;19923;-78
2022/11/20 14:35:14;;;;;;;;;;;8.50;99.90;;;;;;5092953;28;19960;-77
2022/11/20 14:37:40;;;;;;;;;;;8.50;99.90;;;;;;5093220;28;20396;-78
2022/11/20 14:40:22;;;;;;;;;;;8.40;99.90;;;;;;5093274;28;19908;-76
2022/11/20 14:42:47;;;;;;;;;;;8.40;99.90;;;;;;5093463;28;19908;-77
2022/11/20 14:45:13;;;;;;;;;;;8.40;99.90;;;;;;5093133;28;20361;-77
2022/11/20 14:47:39;;;;;;;;;;;8.40;99.90;;;;;;5093856;28;19909;-77
2022/11/20 14:50:12;;;;;;;;;;;8.40;99.90;;;;;;5093356;28;19915;-76
2022/11/20 14:52:37;;;;;;;;;;;8.40;99.90;;;;;;5093352;28;19916;-76